createdAt,value
2023-03-07T00:02:18.425Z,99681.00
2023-03-07T00:04:46.278Z,99670.75
2023-03-07T00:07:13.693Z,99662.84
2023-03-07T00:09:40.105Z,99656.34
2023-03-07T00:12:08.173Z,99653.50
2023-03-07T00:14:35.439Z,99660.28
2023-03-07T00:17:02.155Z,99652.97
2023-03-07T00:19:28.610Z,99655.72
2023-03-07T00:21:55.020Z,99650.56
2023-03-07T00:24:21.512Z,99636.78
2023-03-07T00:26:47.963Z,99641.69
2023-03-07T00:29:14.357Z,99630.28
2023-03-07T00:31:40.893Z,99626.03
2023-03-07T00:34:07.345Z,99610.47
2023-03-07T00:36:33.740Z,99612.38
2023-03-07T00:39:00.149Z,99607.28
2023-03-07T00:41:28.227Z,99599.38
2023-03-07T00:43:55.385Z,99594.22
2023-03-07T00:46:23.883Z,99587.69
2023-03-07T00:48:50.636Z,99584.44
2023-03-07T00:51:18.916Z,99591.03
2023-03-07T00:53:46.000Z,99575.13
2023-03-07T00:56:18.313Z,99562.69
2023-03-07T00:58:45.491Z,99566.44
2023-03-07T01:01:14.388Z,99564.25
2023-03-07T01:03:41.996Z,99561.78
2023-03-07T01:06:13.057Z,99552.91
2023-03-07T01:08:39.695Z,99546.75
2023-03-07T01:11:07.068Z,99546.00
2023-03-07T01:13:35.237Z,99543.47
2023-03-07T01:16:20.413Z,99530.31
2023-03-07T01:18:55.885Z,99528.66
2023-03-07T01:21:24.021Z,99519.47
2023-03-07T01:23:51.481Z,99511.22
2023-03-07T01:26:20.588Z,99511.22
2023-03-07T01:28:47.774Z,99503.28
2023-03-07T01:31:14.292Z,99500.38
2023-03-07T01:33:41.304Z,99495.97
2023-03-07T01:36:20.830Z,99478.31
2023-03-07T01:38:48.564Z,99481.13
2023-03-07T01:41:16.159Z,99470.69
2023-03-07T01:43:43.415Z,99461.84
2023-03-07T01:46:17.676Z,99457.63
2023-03-07T01:48:52.216Z,99454.09
2023-03-07T01:51:19.712Z,99445.94
2023-03-07T01:53:50.673Z,99441.59
2023-03-07T01:56:17.548Z,99435.09
2023-03-07T01:58:44.127Z,99423.06
2023-03-07T02:01:13.910Z,99419.56
2023-03-07T02:03:53.156Z,99414.59
2023-03-07T02:06:20.522Z,99407.56
2023-03-07T02:08:49.599Z,99399.50
2023-03-07T02:11:16.992Z,99393.69
2023-03-07T02:13:43.532Z,99386.75
2023-03-07T02:16:12.047Z,99383.50
2023-03-07T02:18:43.872Z,99373.13
2023-03-07T02:21:30.746Z,99370.13
2023-03-07T02:24:09.804Z,99363.25
2023-03-07T02:26:47.317Z,99361.03
2023-03-07T02:29:14.783Z,99349.19
2023-03-07T02:31:44.785Z,99344.06
2023-03-07T02:34:25.925Z,99332.88
2023-03-07T02:37:14.774Z,99329.78
2023-03-07T02:39:43.725Z,99325.78
2023-03-07T02:42:16.128Z,99318.88
2023-03-07T02:44:56.121Z,99317.00
2023-03-07T02:47:22.849Z,99306.34
2023-03-07T02:49:49.493Z,99300.50
2023-03-07T02:52:16.078Z,99303.31
2023-03-07T02:54:42.510Z,99289.84
2023-03-07T02:57:10.540Z,99280.28
2023-03-07T02:59:37.259Z,99270.91
2023-03-07T03:02:03.749Z,99268.44
2023-03-07T03:04:30.190Z,99263.84
2023-03-07T03:06:56.677Z,99258.84
2023-03-07T03:09:23.157Z,99262.16
2023-03-07T03:11:49.540Z,99242.56
2023-03-07T03:14:18.832Z,99237.38
2023-03-07T03:16:45.274Z,99230.78
2023-03-07T03:19:12.035Z,99229.47
2023-03-07T03:21:38.850Z,99220.09
2023-03-07T03:24:06.847Z,99214.88
2023-03-07T03:26:34.877Z,99222.31
2023-03-07T03:29:02.922Z,99196.97
2023-03-07T03:31:30.368Z,99189.00
2023-03-07T03:33:58.273Z,99190.13
2023-03-07T03:36:26.994Z,99186.53
2023-03-07T03:38:59.669Z,99181.31
2023-03-07T03:41:26.796Z,99177.16
2023-03-07T03:43:54.043Z,99171.94
2023-03-07T03:46:21.088Z,99168.91
2023-03-07T03:48:53.330Z,99163.69
2023-03-07T03:51:22.277Z,99159.84
2023-03-07T03:53:49.297Z,99156.00
2023-03-07T03:56:18.024Z,99154.09
2023-03-07T03:58:47.461Z,99142.75
2023-03-07T04:01:14.091Z,99146.66
2023-03-07T04:03:43.385Z,99136.97
2023-03-07T04:06:12.983Z,99143.09
2023-03-07T04:08:40.909Z,99138.63
2023-03-07T04:11:07.364Z,99134.28
2023-03-07T04:13:35.207Z,99132.94
2023-03-07T04:16:02.397Z,99118.84
2023-03-07T04:18:29.002Z,99123.28
2023-03-07T04:20:55.724Z,99116.09
2023-03-07T04:23:24.152Z,99110.59
2023-03-07T04:25:55.525Z,99104.53
2023-03-07T04:28:24.894Z,99108.16
2023-03-07T04:30:53.099Z,99103.44
2023-03-07T04:33:20.617Z,99099.25
2023-03-07T04:35:48.392Z,99094.63
2023-03-07T04:38:15.753Z,99087.47
2023-03-07T04:40:42.259Z,99086.84
2023-03-07T04:43:10.210Z,99089.59
2023-03-07T04:45:37.220Z,99071.13
2023-03-07T04:48:04.604Z,99081.84
2023-03-07T04:50:32.247Z,99071.91
2023-03-07T04:52:58.719Z,99069.44
2023-03-07T04:55:25.288Z,99062.00
2023-03-07T04:57:52.037Z,99061.47
2023-03-07T05:00:19.982Z,99058.13
2023-03-07T05:02:48.615Z,99053.72
2023-03-07T05:05:17.352Z,99050.69
2023-03-07T05:07:44.354Z,99032.19
2023-03-07T05:10:11.910Z,99035.53
2023-03-07T05:12:38.426Z,99032.25
2023-03-07T05:15:06.524Z,99033.31
2023-03-07T05:17:32.941Z,99024.19
2023-03-07T05:19:59.369Z,99030.88
2023-03-07T05:22:25.841Z,99024.19
2023-03-07T05:24:52.267Z,99016.78
2023-03-07T05:27:19.013Z,99023.41
2023-03-07T05:29:45.478Z,99024.25
2023-03-07T05:32:11.922Z,99017.09
2023-03-07T05:34:39.357Z,99022.63
2023-03-07T05:37:06.106Z,99025.91
2023-03-07T05:39:32.677Z,99027.28
2023-03-07T05:41:59.239Z,99017.94
2023-03-07T05:44:26.422Z,99012.97
2023-03-07T05:46:54.598Z,99025.06
2023-03-07T05:49:21.169Z,99023.72
2023-03-07T05:51:47.624Z,99019.31
2023-03-07T05:54:14.060Z,99022.34
2023-03-07T05:56:40.530Z,99019.84
2023-03-07T05:59:07.800Z,99003.34
2023-03-07T06:01:34.665Z,99001.19
2023-03-07T06:04:01.200Z,99013.28
2023-03-07T06:06:27.645Z,98999.78
2023-03-07T06:08:54.116Z,99002.25
2023-03-07T06:11:21.078Z,99002.25
2023-03-07T06:13:47.649Z,99005.88
2023-03-07T06:16:14.126Z,99003.13
2023-03-07T06:18:41.620Z,99000.91
2023-03-07T06:21:10.227Z,99003.41
2023-03-07T06:23:41.720Z,98993.47
2023-03-07T06:26:12.558Z,99000.34
2023-03-07T06:28:40.851Z,99002.31
2023-03-07T06:31:15.996Z,98999.53
2023-03-07T06:33:44.262Z,99003.41
2023-03-07T06:36:14.119Z,99006.69
2023-03-07T06:38:42.698Z,99000.09
2023-03-07T06:41:09.340Z,98997.88
2023-03-07T06:43:35.793Z,98999.56
2023-03-07T06:46:03.545Z,99009.50
2023-03-07T06:48:34.866Z,99010.59
2023-03-07T06:51:07.539Z,99015.84
2023-03-07T06:53:34.309Z,99019.19
2023-03-07T06:56:02.095Z,99017.78
2023-03-07T06:58:28.660Z,99018.59
2023-03-07T07:00:55.576Z,99016.66
2023-03-07T07:03:22.344Z,99009.78
2023-03-07T07:05:48.813Z,99017.78
2023-03-07T07:08:15.221Z,99013.38
2023-03-07T07:10:41.914Z,99008.97
2023-03-07T07:13:08.630Z,99003.16
2023-03-07T07:15:35.329Z,99000.41
2023-03-07T07:18:01.769Z,98998.78
2023-03-07T07:20:31.692Z,99000.69
2023-03-07T07:22:58.081Z,98994.59
2023-03-07T07:25:24.540Z,99000.44
2023-03-07T07:27:51.073Z,98988.28
2023-03-07T07:30:17.791Z,98989.38
2023-03-07T07:32:44.945Z,98995.19
2023-03-07T07:35:11.808Z,98990.19
2023-03-07T07:37:38.330Z,98988.53
2023-03-07T07:40:05.192Z,98988.81
2023-03-07T07:42:32.396Z,98992.94
2023-03-07T07:45:25.151Z,99000.13
2023-03-07T07:47:52.332Z,98988.28
2023-03-07T07:50:24.100Z,98992.94
2023-03-07T07:52:53.135Z,98994.06
2023-03-07T07:55:20.061Z,98983.84
2023-03-07T07:57:46.803Z,98993.25
2023-03-07T08:00:14.153Z,98991.56
2023-03-07T08:02:40.667Z,98990.19
2023-03-07T08:05:08.128Z,98995.97
2023-03-07T08:07:34.514Z,98981.59
2023-03-07T08:10:00.929Z,98988.25
2023-03-07T08:12:28.074Z,98986.28
2023-03-07T08:14:54.516Z,98999.53
2023-03-07T08:17:20.923Z,98998.16
2023-03-07T08:19:47.358Z,98990.44
2023-03-07T08:22:13.956Z,98993.19
2023-03-07T08:24:41.213Z,98980.44
2023-03-07T08:27:08.067Z,98986.28
2023-03-07T08:29:35.279Z,98986.78
2023-03-07T08:32:01.847Z,98985.41
2023-03-07T08:34:28.245Z,98983.44
2023-03-07T08:36:54.644Z,98985.41
2023-03-07T08:39:21.035Z,98991.75
2023-03-07T08:41:47.427Z,98994.25
2023-03-07T08:44:13.817Z,98989.22
2023-03-07T08:46:40.375Z,98983.19
2023-03-07T08:49:06.805Z,98982.84
2023-03-07T08:51:33.215Z,98977.66
2023-03-07T08:53:59.673Z,98984.78
2023-03-07T08:56:27.225Z,98997.47
2023-03-07T08:58:54.543Z,98985.56
2023-03-07T09:01:21.070Z,98985.84
2023-03-07T09:03:47.580Z,98993.31
2023-03-07T09:06:19.186Z,98998.84
2023-03-07T09:08:47.273Z,98997.09
2023-03-07T09:11:14.150Z,99007.63
2023-03-07T09:13:51.456Z,98994.34
2023-03-07T09:16:20.846Z,99000.44
2023-03-07T09:18:47.368Z,99007.81
2023-03-07T09:21:13.792Z,98996.75
2023-03-07T09:23:40.224Z,98984.81
2023-03-07T09:26:06.754Z,98995.28
2023-03-07T09:28:33.297Z,98987.47
2023-03-07T09:30:59.789Z,98987.19
2023-03-07T09:33:26.172Z,98988.56
2023-03-07T09:35:52.587Z,98982.75
2023-03-07T09:38:19.026Z,98993.78
2023-03-07T09:40:47.739Z,98982.72
2023-03-07T09:43:20.601Z,98979.91
2023-03-07T09:46:46.710Z,98985.41
2023-03-07T09:49:23.410Z,98988.19
2023-03-07T09:51:53.944Z,98981.81
2023-03-07T09:54:24.926Z,98987.34
2023-03-07T09:56:57.825Z,98968.75
2023-03-07T09:59:38.974Z,98972.81
2023-03-07T10:02:23.342Z,98970.38
2023-03-07T10:05:42.984Z,98970.00
2023-03-07T10:08:15.466Z,98975.38
2023-03-07T10:10:47.626Z,98982.00
2023-03-07T10:13:37.838Z,98984.16
2023-03-07T10:16:24.562Z,98983.22
2023-03-07T10:19:23.670Z,98980.56
2023-03-07T10:22:12.359Z,98981.34
2023-03-07T10:24:45.378Z,98989.88
2023-03-07T10:27:13.142Z,98984.69
2023-03-07T10:29:51.166Z,98989.59
2023-03-07T10:32:37.630Z,98996.56
2023-03-07T10:35:16.777Z,98999.41
2023-03-07T10:37:58.532Z,98993.03
2023-03-07T10:40:41.687Z,98983.94
2023-03-07T10:43:20.902Z,98981.25
2023-03-07T10:45:47.332Z,98989.56
2023-03-07T10:48:18.802Z,98986.19
2023-03-07T10:50:53.429Z,98980.31
2023-03-07T10:53:25.316Z,98980.31
2023-03-07T10:55:52.439Z,98974.28
2023-03-07T10:58:23.388Z,98959.50
2023-03-07T11:01:10.989Z,98957.63
2023-03-07T11:03:55.404Z,98956.34
2023-03-07T11:06:39.963Z,98945.22
2023-03-07T11:09:33.895Z,98949.38
2023-03-07T11:12:10.629Z,98940.91
2023-03-07T11:14:54.414Z,98933.97
2023-03-07T11:17:39.067Z,98932.94
2023-03-07T11:20:25.474Z,98931.38
2023-03-07T11:23:18.290Z,98924.47
2023-03-07T11:25:44.963Z,98925.38
2023-03-07T11:28:33.298Z,98916.16
2023-03-07T11:31:28.994Z,98919.78
2023-03-07T11:34:36.652Z,98924.19
2023-03-07T11:37:38.119Z,98917.56
2023-03-07T11:40:18.641Z,98912.94
2023-03-07T11:43:06.757Z,98927.44
2023-03-07T11:46:05.920Z,98917.28
2023-03-07T11:48:51.411Z,98920.00
2023-03-07T11:51:36.035Z,98924.25
2023-03-07T11:54:32.663Z,98924.94
2023-03-07T11:57:18.983Z,98920.94
2023-03-07T12:00:03.612Z,98920.59
2023-03-07T12:03:12.921Z,98913.44
2023-03-07T12:05:54.292Z,98926.03
2023-03-07T12:09:02.203Z,98922.97
2023-03-07T12:11:47.581Z,98916.28
2023-03-07T12:14:28.986Z,98924.31
2023-03-07T12:17:27.805Z,98923.22
2023-03-07T12:20:15.044Z,98926.91
2023-03-07T12:23:02.871Z,98930.91
2023-03-07T12:25:46.303Z,98927.00
2023-03-07T12:28:18.823Z,98925.13
2023-03-07T12:31:08.777Z,98921.59
2023-03-07T12:33:51.548Z,98930.50
2023-03-07T12:36:27.827Z,98923.31
2023-03-07T12:39:20.095Z,98929.59
2023-03-07T12:42:06.633Z,98919.75
2023-03-07T12:44:40.100Z,98914.72
2023-03-07T12:47:25.410Z,98929.41
2023-03-07T12:50:00.105Z,98927.50
2023-03-07T12:52:44.769Z,98930.78
2023-03-07T12:55:22.830Z,98937.22
2023-03-07T12:57:57.773Z,98935.00
2023-03-07T13:00:25.610Z,98940.91
2023-03-07T13:03:04.246Z,98945.56
2023-03-07T13:05:33.339Z,98948.09
2023-03-07T13:07:59.942Z,98945.31
2023-03-07T13:10:26.938Z,98946.94
2023-03-07T13:12:53.514Z,98943.56
2023-03-07T13:15:20.910Z,98937.00
2023-03-07T13:17:47.245Z,98942.53
2023-03-07T13:20:19.360Z,98940.81
2023-03-07T13:22:45.703Z,98939.19
2023-03-07T13:25:21.187Z,98944.97
2023-03-07T13:27:52.636Z,98944.16
2023-03-07T13:30:32.719Z,98944.16
2023-03-07T13:33:27.561Z,98936.66
2023-03-07T13:35:56.779Z,98946.31
2023-03-07T13:38:46.490Z,98944.41
2023-03-07T13:41:33.726Z,98953.28
2023-03-07T13:44:01.988Z,98950.50
2023-03-07T13:46:43.714Z,98952.69
2023-03-07T13:49:10.131Z,98948.28
2023-03-07T13:51:36.531Z,98951.38
2023-03-07T13:54:05.538Z,98941.44
2023-03-07T13:56:42.318Z,98936.22
2023-03-07T13:59:21.541Z,98931.25
2023-03-07T14:01:54.605Z,98923.78
2023-03-07T14:04:38.971Z,98937.59
2023-03-07T14:07:21.490Z,98933.19
2023-03-07T14:09:57.094Z,98935.41
2023-03-07T14:12:40.438Z,98945.63
2023-03-07T14:15:14.815Z,98931.75
2023-03-07T14:17:54.801Z,98941.41
2023-03-07T14:20:21.233Z,98945.88
2023-03-07T14:23:02.191Z,98941.19
2023-03-07T14:25:42.979Z,98931.50
2023-03-07T14:28:26.776Z,98938.72
2023-03-07T14:30:58.773Z,98940.63
2023-03-07T14:33:38.159Z,98941.72
2023-03-07T14:36:18.919Z,98930.66
2023-03-07T14:38:47.128Z,98946.94
2023-03-07T14:41:36.313Z,98937.03
2023-03-07T14:44:24.371Z,98942.28
2023-03-07T14:47:06.494Z,98952.25
2023-03-07T14:49:39.219Z,98948.88
2023-03-07T14:52:06.031Z,98953.00
2023-03-07T14:54:33.940Z,98943.91
2023-03-07T14:57:01.357Z,98952.19
2023-03-07T14:59:29.415Z,98948.03
2023-03-07T15:02:00.044Z,98941.16
2023-03-07T15:04:31.564Z,98944.41
2023-03-07T15:07:01.384Z,98950.47
2023-03-07T15:09:28.609Z,98947.72
2023-03-07T15:12:01.914Z,98946.63
2023-03-07T15:14:44.420Z,98946.09
2023-03-07T15:17:16.763Z,98948.91
2023-03-07T15:19:55.381Z,98939.97
2023-03-07T15:22:39.307Z,98959.59
2023-03-07T15:25:16.852Z,98956.81
2023-03-07T15:27:43.359Z,98955.44
2023-03-07T15:30:23.773Z,98946.34
2023-03-07T15:33:03.402Z,98961.53
2023-03-07T15:35:29.857Z,98956.81
2023-03-07T15:38:07.771Z,98954.56
2023-03-07T15:40:36.088Z,98971.72
2023-03-07T15:43:04.398Z,98969.25
2023-03-07T15:45:34.108Z,98984.78
2023-03-07T15:48:08.992Z,98985.56
2023-03-07T15:50:35.488Z,98973.38
2023-03-07T15:53:18.088Z,98981.94
2023-03-07T15:55:55.765Z,98991.59
2023-03-07T15:58:22.863Z,98983.63
2023-03-07T16:00:49.255Z,98988.03
2023-03-07T16:03:30.107Z,98984.75
2023-03-07T16:05:59.028Z,98996.06
2023-03-07T16:08:25.698Z,98995.50
2023-03-07T16:10:57.667Z,98989.97
2023-03-07T16:13:29.092Z,98992.19
2023-03-07T16:16:14.247Z,98990.56
2023-03-07T16:18:42.097Z,98993.91
2023-03-07T16:21:13.944Z,98994.97
2023-03-07T16:23:40.456Z,98996.44
2023-03-07T16:26:07.671Z,98999.69
2023-03-07T16:28:34.777Z,99005.53
2023-03-07T16:31:01.269Z,99004.38
2023-03-07T16:33:27.678Z,98993.66
2023-03-07T16:35:54.097Z,99000.78
2023-03-07T16:38:21.349Z,99002.75
2023-03-07T16:40:47.747Z,99011.88
2023-03-07T16:43:23.721Z,99017.41
2023-03-07T16:45:50.143Z,99019.34
2023-03-07T16:48:17.306Z,99018.47
2023-03-07T16:50:43.688Z,99014.06
2023-03-07T16:53:10.103Z,99016.81
2023-03-07T16:55:38.162Z,99022.38
2023-03-07T16:58:06.493Z,99023.75
2023-03-07T17:00:32.973Z,99030.97
2023-03-07T17:03:00.697Z,99025.69
2023-03-07T17:05:28.855Z,99035.13
2023-03-07T17:07:57.283Z,99035.69
2023-03-07T17:10:26.430Z,99028.47
2023-03-07T17:12:54.996Z,99035.38
2023-03-07T17:15:26.106Z,99039.78
2023-03-07T17:17:53.124Z,99042.84
2023-03-07T17:20:20.376Z,99037.63
2023-03-07T17:22:46.777Z,99042.03
2023-03-07T17:25:13.245Z,99046.50
2023-03-07T17:27:45.325Z,99042.88
2023-03-07T17:30:19.250Z,99058.88
2023-03-07T17:32:47.099Z,99062.78
2023-03-07T17:35:15.014Z,99063.34
2023-03-07T17:37:42.328Z,99065.28
2023-03-07T17:40:10.871Z,99069.94
2023-03-07T17:42:37.721Z,99060.00
2023-03-07T17:45:09.820Z,99056.41
2023-03-07T17:47:36.961Z,99069.94
2023-03-07T17:50:05.422Z,99072.19
2023-03-07T17:52:32.810Z,99077.72
2023-03-07T17:54:59.338Z,99077.72
2023-03-07T17:57:27.216Z,99078.25
2023-03-07T17:59:54.897Z,99074.13
2023-03-07T18:02:21.456Z,99081.56
2023-03-07T18:04:47.845Z,99089.03
2023-03-07T18:07:14.236Z,99084.34
2023-03-07T18:09:40.654Z,99088.75
2023-03-07T18:12:07.416Z,99079.66
2023-03-07T18:14:33.845Z,99088.75
2023-03-07T18:17:00.235Z,99085.19
2023-03-07T18:19:27.419Z,99079.38
2023-03-07T18:21:55.216Z,99086.84
2023-03-07T18:24:26.272Z,99085.72
2023-03-07T18:26:54.851Z,99082.44
2023-03-07T18:29:21.919Z,99094.31
2023-03-07T18:31:48.310Z,99094.03
2023-03-07T18:34:15.276Z,99096.50
2023-03-07T18:36:42.434Z,99097.34
2023-03-07T18:39:11.046Z,99095.94
2023-03-07T18:41:37.889Z,99095.69
2023-03-07T18:44:04.351Z,99097.06
2023-03-07T18:46:32.201Z,99093.75
2023-03-07T18:48:59.807Z,99095.94
2023-03-07T18:51:26.951Z,99102.03
2023-03-07T18:53:58.588Z,99100.91
2023-03-07T18:56:25.959Z,99102.59
2023-03-07T18:58:55.783Z,99103.69
2023-03-07T19:01:31.467Z,99106.44
2023-03-07T19:04:02.011Z,99113.88
2023-03-07T19:06:39.330Z,99104.75
2023-03-07T19:09:06.835Z,99113.91
2023-03-07T19:11:33.452Z,99110.84
2023-03-07T19:14:00.056Z,99100.34
2023-03-07T19:16:28.168Z,99111.69
2023-03-07T19:18:55.596Z,99112.53
2023-03-07T19:21:24.025Z,99116.38
2023-03-07T19:23:51.859Z,99117.75
2023-03-07T19:26:19.509Z,99125.22
2023-03-07T19:28:48.034Z,99120.50
2023-03-07T19:31:17.553Z,99131.28
2023-03-07T19:33:45.565Z,99120.81
2023-03-07T19:36:14.457Z,99128.78
2023-03-07T19:38:41.516Z,99133.78
2023-03-07T19:41:12.305Z,99132.91
2023-03-07T19:43:39.028Z,99138.44
2023-03-07T19:46:07.582Z,99147.28
2023-03-07T19:48:34.714Z,99152.25
2023-03-07T19:51:01.516Z,99149.50
2023-03-07T19:53:28.888Z,99155.56
2023-03-07T19:55:55.717Z,99160.00
2023-03-07T19:58:22.279Z,99149.22
2023-03-07T20:00:48.660Z,99156.13
2023-03-07T20:03:19.644Z,99148.34
2023-03-07T20:05:50.740Z,99155.03
2023-03-07T20:08:17.194Z,99161.38
2023-03-07T20:10:44.698Z,99158.00
2023-03-07T20:13:13.401Z,99160.78
2023-03-07T20:15:39.872Z,99166.59
2023-03-07T20:18:06.290Z,99174.59
2023-03-07T20:20:35.578Z,99177.09
2023-03-07T20:23:01.992Z,99174.31
2023-03-07T20:25:29.706Z,99175.41
2023-03-07T20:27:56.252Z,99180.41
2023-03-07T20:30:23.967Z,99190.91
2023-03-07T20:32:50.768Z,99191.44
2023-03-07T20:35:17.287Z,99190.63
2023-03-07T20:37:43.712Z,99185.88
2023-03-07T20:40:10.705Z,99192.53
2023-03-07T20:42:37.167Z,99202.47
2023-03-07T20:45:04.105Z,99197.78
2023-03-07T20:47:32.389Z,99199.44
2023-03-07T20:49:58.782Z,99201.63
2023-03-07T20:52:25.890Z,99209.66
2023-03-07T20:54:52.315Z,99204.13
2023-03-07T20:57:18.722Z,99208.25
2023-03-07T20:59:45.155Z,99214.88
2023-03-07T21:02:11.959Z,99207.69
2023-03-07T21:04:38.888Z,99214.84
2023-03-07T21:07:05.518Z,99218.19
2023-03-07T21:09:32.219Z,99220.09
2023-03-07T21:11:58.889Z,99221.78
2023-03-07T21:14:26.927Z,99229.50
2023-03-07T21:16:53.429Z,99233.06
2023-03-07T21:19:22.308Z,99250.19
2023-03-07T21:21:48.748Z,99239.72
2023-03-07T21:24:15.817Z,99256.78
2023-03-07T21:26:42.422Z,99262.00
2023-03-07T21:29:10.688Z,99263.94
2023-03-07T21:31:38.556Z,99262.31
2023-03-07T21:34:13.512Z,99272.50
2023-03-07T21:36:39.987Z,99261.16
2023-03-07T21:39:08.174Z,99266.94
2023-03-07T21:41:34.836Z,99273.25
2023-03-07T21:44:01.716Z,99272.22
2023-03-07T21:46:28.412Z,99269.41
2023-03-07T21:48:54.816Z,99280.81
2023-03-07T21:51:21.465Z,99276.34
2023-03-07T21:53:48.025Z,99272.78
2023-03-07T21:56:19.006Z,99278.59
2023-03-07T21:58:49.817Z,99273.03
2023-03-07T22:01:22.085Z,99290.16
2023-03-07T22:03:52.210Z,99287.66
2023-03-07T22:06:19.616Z,99292.03
2023-03-07T22:08:46.175Z,99298.66
2023-03-07T22:11:13.003Z,99302.78
2023-03-07T22:13:41.153Z,99300.84
2023-03-07T22:16:11.393Z,99306.56
2023-03-07T22:18:38.425Z,99311.03
2023-03-07T22:21:07.703Z,99312.09
2023-03-07T22:23:34.344Z,99314.06
2023-03-07T22:26:08.652Z,99323.16
2023-03-07T22:28:35.732Z,99316.53
2023-03-07T22:31:07.294Z,99312.13
2023-03-07T22:33:33.870Z,99320.41
2023-03-07T22:36:02.952Z,99327.25
2023-03-07T22:38:30.166Z,99329.47
2023-03-07T22:41:05.680Z,99329.97
2023-03-07T22:43:33.012Z,99334.13
2023-03-07T22:46:00.177Z,99336.31
2023-03-07T22:48:27.549Z,99334.91
2023-03-07T22:50:54.114Z,99341.28
2023-03-07T22:53:20.676Z,99339.03
2023-03-07T22:55:47.280Z,99340.69
2023-03-07T22:58:14.279Z,99342.88
2023-03-07T23:00:42.651Z,99349.28
2023-03-07T23:03:09.921Z,99338.47
2023-03-07T23:05:36.951Z,99340.63
2023-03-07T23:08:04.571Z,99342.88
2023-03-07T23:10:31.746Z,99334.84
2023-03-07T23:12:59.304Z,99340.03
2023-03-07T23:15:26.556Z,99334.03
2023-03-07T23:17:53.243Z,99331.22
2023-03-07T23:20:19.854Z,99332.09
2023-03-07T23:22:46.716Z,99338.63
2023-03-07T23:25:14.926Z,99348.59
2023-03-07T23:27:41.346Z,99342.78
2023-03-07T23:30:08.668Z,99346.59
2023-03-07T23:32:35.182Z,99341.91
2023-03-07T23:35:01.830Z,99346.56
2023-03-07T23:37:28.225Z,99347.38
2023-03-07T23:39:54.645Z,99351.97
2023-03-07T23:42:21.364Z,99354.22
2023-03-07T23:44:49.286Z,99353.56
2023-03-07T23:47:16.048Z,99359.88
2023-03-07T23:49:42.604Z,99364.38
2023-03-07T23:52:09.006Z,99367.91
2023-03-07T23:54:35.429Z,99378.94
2023-03-07T23:57:01.817Z,99383.34
2023-03-07T23:59:28.209Z,99379.75
